sensor_id;sensor_type;location;lat;lon;timestamp;temperature;humidity
14604;DHT22;7388;51.078;13.740;2022-10-23T00:00:38;15.50;52.90
14604;DHT22;7388;51.078;13.740;2022-10-23T00:03:05;15.60;52.90
14604;DHT22;7388;51.078;13.740;2022-10-23T00:05:30;15.60;52.90
14604;DHT22;7388;51.078;13.740;2022-10-23T00:07:58;15.60;53.00
14604;DHT22;7388;51.078;13.740;2022-10-23T00:10:26;15.60;53.80
14604;DHT22;7388;51.078;13.740;2022-10-23T00:12:52;15.60;53.50
14604;DHT22;7388;51.078;13.740;2022-10-23T00:15:19;16.10;53.60
14604;DHT22;7388;51.078;13.740;2022-10-23T00:17:46;15.50;53.40
14604;DHT22;7388;51.078;13.740;2022-10-23T00:20:13;15.50;53.60
14604;DHT22;7388;51.078;13.740;2022-10-23T00:22:39;15.60;53.60
14604;DHT22;7388;51.078;13.740;2022-10-23T00:25:07;15.60;53.40
14604;DHT22;7388;51.078;13.740;2022-10-23T00:27:33;15.60;53.30
14604;DHT22;7388;51.078;13.740;2022-10-23T00:30:00;15.60;53.20
14604;DHT22;7388;51.078;13.740;2022-10-23T00:32:26;15.60;53.20
14604;DHT22;7388;51.078;13.740;2022-10-23T00:34:52;15.60;53.20
14604;DHT22;7388;51.078;13.740;2022-10-23T00:37:18;15.60;53.20
14604;DHT22;7388;51.078;13.740;2022-10-23T00:39:44;15.60;53.10
14604;DHT22;7388;51.078;13.740;2022-10-23T00:42:16;15.50;53.10
14604;DHT22;7388;51.078;13.740;2022-10-23T00:47:08;15.50;52.90
14604;DHT22;7388;51.078;13.740;2022-10-23T00:49:34;15.50;53.00
14604;DHT22;7388;51.078;13.740;2022-10-23T00:52:05;15.50;52.90
14604;DHT22;7388;51.078;13.740;2022-10-23T00:54:35;15.50;53.00
14604;DHT22;7388;51.078;13.740;2022-10-23T00:57:03;15.50;52.90
14604;DHT22;7388;51.078;13.740;2022-10-23T00:59:30;15.50;52.80
14604;DHT22;7388;51.078;13.740;2022-10-23T01:01:56;15.50;52.80
14604;DHT22;7388;51.078;13.740;2022-10-23T01:04:23;15.50;52.80
14604;DHT22;7388;51.078;13.740;2022-10-23T01:07:02;15.40;52.60
14604;DHT22;7388;51.078;13.740;2022-10-23T01:09:38;15.50;52.60
14604;DHT22;7388;51.078;13.740;2022-10-23T01:17:33;15.30;52.50
14604;DHT22;7388;51.078;13.740;2022-10-23T01:23:10;15.30;52.40
14604;DHT22;7388;51.078;13.740;2022-10-23T01:28:49;15.30;53.40
14604;DHT22;7388;51.078;13.740;2022-10-23T01:31:26;15.30;52.80
14604;DHT22;7388;51.078;13.740;2022-10-23T01:33:59;15.30;52.80
14604;DHT22;7388;51.078;13.740;2022-10-23T01:36:29;15.30;52.70
14604;DHT22;7388;51.078;13.740;2022-10-23T01:39:05;15.30;52.60
14604;DHT22;7388;51.078;13.740;2022-10-23T01:41:41;15.30;52.60
14604;DHT22;7388;51.078;13.740;2022-10-23T01:44:31;15.30;52.60
14604;DHT22;7388;51.078;13.740;2022-10-23T01:46:57;15.30;52.50
14604;DHT22;7388;51.078;13.740;2022-10-23T01:49:24;15.30;52.50
14604;DHT22;7388;51.078;13.740;2022-10-23T01:51:59;15.30;52.40
14604;DHT22;7388;51.078;13.740;2022-10-23T01:54:29;15.30;52.10
14604;DHT22;7388;51.078;13.740;2022-10-23T01:56:57;14.00;51.50
14604;DHT22;7388;51.078;13.740;2022-10-23T01:59:34;15.30;52.20
14604;DHT22;7388;51.078;13.740;2022-10-23T02:02:02;15.30;52.20
14604;DHT22;7388;51.078;13.740;2022-10-23T02:04:33;15.20;52.10
14604;DHT22;7388;51.078;13.740;2022-10-23T02:07:00;15.20;52.10
14604;DHT22;7388;51.078;13.740;2022-10-23T02:09:26;15.20;52.10
14604;DHT22;7388;51.078;13.740;2022-10-23T02:12:02;15.20;52.10
14604;DHT22;7388;51.078;13.740;2022-10-23T02:14:49;15.20;52.10
14604;DHT22;7388;51.078;13.740;2022-10-23T02:17:20;15.20;52.00
14604;DHT22;7388;51.078;13.740;2022-10-23T02:22:43;15.20;52.10
14604;DHT22;7388;51.078;13.740;2022-10-23T02:25:15;15.10;52.20
14604;DHT22;7388;51.078;13.740;2022-10-23T02:28:05;15.10;52.20
14604;DHT22;7388;51.078;13.740;2022-10-23T02:30:34;15.10;52.10
14604;DHT22;7388;51.078;13.740;2022-10-23T02:33:01;15.10;52.20
14604;DHT22;7388;51.078;13.740;2022-10-23T02:35:28;15.10;52.20
14604;DHT22;7388;51.078;13.740;2022-10-23T02:37:56;15.10;52.20
14604;DHT22;7388;51.078;13.740;2022-10-23T02:40:29;15.10;52.10
14604;DHT22;7388;51.078;13.740;2022-10-23T02:43:01;15.10;52.10
14604;DHT22;7388;51.078;13.740;2022-10-23T02:46:05;15.10;52.20
14604;DHT22;7388;51.078;13.740;2022-10-23T02:48:32;15.10;52.10
14604;DHT22;7388;51.078;13.740;2022-10-23T02:51:13;15.10;52.10
14604;DHT22;7388;51.078;13.740;2022-10-23T02:56:40;15.10;52.10
14604;DHT22;7388;51.078;13.740;2022-10-23T02:59:39;15.00;52.10
14604;DHT22;7388;51.078;13.740;2022-10-23T03:02:12;15.10;52.10
14604;DHT22;7388;51.078;13.740;2022-10-23T03:04:41;15.00;52.10
14604;DHT22;7388;51.078;13.740;2022-10-23T03:07:15;15.00;52.00
14604;DHT22;7388;51.078;13.740;2022-10-23T03:09:43;15.10;52.00
14604;DHT22;7388;51.078;13.740;2022-10-23T03:12:08;15.00;51.90
14604;DHT22;7388;51.078;13.740;2022-10-23T03:14:34;15.00;51.70
14604;DHT22;7388;51.078;13.740;2022-10-23T03:17:00;15.00;51.70
14604;DHT22;7388;51.078;13.740;2022-10-23T03:19:26;15.00;51.80
14604;DHT22;7388;51.078;13.740;2022-10-23T03:21:51;14.90;51.70
14604;DHT22;7388;51.078;13.740;2022-10-23T03:24:17;14.90;51.70
14604;DHT22;7388;51.078;13.740;2022-10-23T03:26:43;14.90;51.80
14604;DHT22;7388;51.078;13.740;2022-10-23T03:29:09;14.90;51.90
14604;DHT22;7388;51.078;13.740;2022-10-23T03:31:34;14.90;51.90
14604;DHT22;7388;51.078;13.740;2022-10-23T03:34:00;14.90;51.90
14604;DHT22;7388;51.078;13.740;2022-10-23T03:36:26;14.80;51.70
14604;DHT22;7388;51.078;13.740;2022-10-23T03:38:52;14.90;51.70
14604;DHT22;7388;51.078;13.740;2022-10-23T03:41:18;14.80;51.50
14604;DHT22;7388;51.078;13.740;2022-10-23T03:43:43;14.80;51.50
14604;DHT22;7388;51.078;13.740;2022-10-23T03:46:09;14.80;51.50
14604;DHT22;7388;51.078;13.740;2022-10-23T03:48:37;14.80;51.40
14604;DHT22;7388;51.078;13.740;2022-10-23T03:51:06;14.70;51.40
14604;DHT22;7388;51.078;13.740;2022-10-23T03:53:32;14.70;51.30
14604;DHT22;7388;51.078;13.740;2022-10-23T03:55:57;14.70;51.40
14604;DHT22;7388;51.078;13.740;2022-10-23T03:58:23;14.70;51.50
14604;DHT22;7388;51.078;13.740;2022-10-23T04:00:49;14.60;51.50
14604;DHT22;7388;51.078;13.740;2022-10-23T04:03:15;14.60;51.40
14604;DHT22;7388;51.078;13.740;2022-10-23T04:05:41;14.70;51.40
14604;DHT22;7388;51.078;13.740;2022-10-23T04:08:07;14.60;51.30
14604;DHT22;7388;51.078;13.740;2022-10-23T04:10:33;14.60;51.20
14604;DHT22;7388;51.078;13.740;2022-10-23T04:12:58;14.70;51.30
14604;DHT22;7388;51.078;13.740;2022-10-23T04:15:24;14.60;51.00
14604;DHT22;7388;51.078;13.740;2022-10-23T04:17:50;14.60;51.20
14604;DHT22;7388;51.078;13.740;2022-10-23T04:20:16;14.50;51.20
14604;DHT22;7388;51.078;13.740;2022-10-23T04:22:42;14.50;51.20
14604;DHT22;7388;51.078;13.740;2022-10-23T04:25:08;14.50;51.20
14604;DHT22;7388;51.078;13.740;2022-10-23T04:27:34;14.50;51.20
14604;DHT22;7388;51.078;13.740;2022-10-23T04:29:59;14.50;51.20
14604;DHT22;7388;51.078;13.740;2022-10-23T04:32:26;14.40;51.10
14604;DHT22;7388;51.078;13.740;2022-10-23T04:34:51;14.50;51.20
14604;DHT22;7388;51.078;13.740;2022-10-23T04:37:17;14.50;51.20
14604;DHT22;7388;51.078;13.740;2022-10-23T04:39:43;14.50;51.30
14604;DHT22;7388;51.078;13.740;2022-10-23T04:42:08;14.40;51.20
14604;DHT22;7388;51.078;13.740;2022-10-23T04:44:34;14.40;51.10
14604;DHT22;7388;51.078;13.740;2022-10-23T04:47:00;14.30;51.70
14604;DHT22;7388;51.078;13.740;2022-10-23T04:49:25;14.30;51.00
14604;DHT22;7388;51.078;13.740;2022-10-23T04:51:51;14.30;50.70
14604;DHT22;7388;51.078;13.740;2022-10-23T04:54:17;14.20;50.70
14604;DHT22;7388;51.078;13.740;2022-10-23T04:56:43;14.10;50.80
14604;DHT22;7388;51.078;13.740;2022-10-23T04:59:09;14.20;50.90
14604;DHT22;7388;51.078;13.740;2022-10-23T05:01:34;14.10;50.80
14604;DHT22;7388;51.078;13.740;2022-10-23T05:04:00;14.10;50.90
14604;DHT22;7388;51.078;13.740;2022-10-23T05:06:26;14.10;50.80
14604;DHT22;7388;51.078;13.740;2022-10-23T05:08:52;14.10;50.90
14604;DHT22;7388;51.078;13.740;2022-10-23T05:11:17;14.00;50.80
14604;DHT22;7388;51.078;13.740;2022-10-23T05:13:43;13.90;50.90
14604;DHT22;7388;51.078;13.740;2022-10-23T05:16:09;13.90;50.90
14604;DHT22;7388;51.078;13.740;2022-10-23T05:18:41;13.90;50.80
14604;DHT22;7388;51.078;13.740;2022-10-23T05:21:17;13.90;50.70
14604;DHT22;7388;51.078;13.740;2022-10-23T05:23:45;13.90;50.80
14604;DHT22;7388;51.078;13.740;2022-10-23T05:26:11;13.90;50.80
14604;DHT22;7388;51.078;13.740;2022-10-23T05:28:36;13.90;50.90
14604;DHT22;7388;51.078;13.740;2022-10-23T05:31:03;13.80;50.70
14604;DHT22;7388;51.078;13.740;2022-10-23T05:33:30;13.90;50.80
14604;DHT22;7388;51.078;13.740;2022-10-23T05:35:57;13.80;50.70
14604;DHT22;7388;51.078;13.740;2022-10-23T05:38:25;13.80;50.80
14604;DHT22;7388;51.078;13.740;2022-10-23T05:40:52;13.80;50.80
14604;DHT22;7388;51.078;13.740;2022-10-23T05:43:18;13.80;50.80
14604;DHT22;7388;51.078;13.740;2022-10-23T05:45:44;13.80;50.80
14604;DHT22;7388;51.078;13.740;2022-10-23T05:48:13;13.90;51.10
14604;DHT22;7388;51.078;13.740;2022-10-23T05:50:40;13.90;51.20
14604;DHT22;7388;51.078;13.740;2022-10-23T05:53:06;13.90;51.40
14604;DHT22;7388;51.078;13.740;2022-10-23T05:55:31;13.90;51.50
14604;DHT22;7388;51.078;13.740;2022-10-23T05:58:00;13.90;51.70
14604;DHT22;7388;51.078;13.740;2022-10-23T06:00:25;14.00;51.60
14604;DHT22;7388;51.078;13.740;2022-10-23T06:02:51;14.00;51.50
14604;DHT22;7388;51.078;13.740;2022-10-23T06:05:17;14.00;51.50
14604;DHT22;7388;51.078;13.740;2022-10-23T06:07:42;14.10;51.60
14604;DHT22;7388;51.078;13.740;2022-10-23T06:10:09;14.10;51.50
14604;DHT22;7388;51.078;13.740;2022-10-23T06:12:34;14.10;51.50
14604;DHT22;7388;51.078;13.740;2022-10-23T06:15:00;14.10;51.50
14604;DHT22;7388;51.078;13.740;2022-10-23T06:17:27;14.20;51.40
14604;DHT22;7388;51.078;13.740;2022-10-23T06:19:53;14.20;51.30
14604;DHT22;7388;51.078;13.740;2022-10-23T06:22:25;14.20;51.30
14604;DHT22;7388;51.078;13.740;2022-10-23T06:24:51;14.20;51.20
14604;DHT22;7388;51.078;13.740;2022-10-23T06:27:17;14.20;51.20
14604;DHT22;7388;51.078;13.740;2022-10-23T06:29:43;14.30;51.30
14604;DHT22;7388;51.078;13.740;2022-10-23T06:32:08;14.30;51.30
14604;DHT22;7388;51.078;13.740;2022-10-23T06:34:34;14.40;51.20
14604;DHT22;7388;51.078;13.740;2022-10-23T06:37:00;14.50;51.20
14604;DHT22;7388;51.078;13.740;2022-10-23T06:39:26;14.60;51.20
14604;DHT22;7388;51.078;13.740;2022-10-23T06:41:51;14.70;51.30
14604;DHT22;7388;51.078;13.740;2022-10-23T06:44:17;14.80;51.30
14604;DHT22;7388;51.078;13.740;2022-10-23T06:46:43;14.90;51.10
14604;DHT22;7388;51.078;13.740;2022-10-23T06:49:13;15.10;51.10
14604;DHT22;7388;51.078;13.740;2022-10-23T06:51:39;15.30;51.00
14604;DHT22;7388;51.078;13.740;2022-10-23T06:54:05;15.50;51.00
14604;DHT22;7388;51.078;13.740;2022-10-23T06:56:31;15.70;51.50
14604;DHT22;7388;51.078;13.740;2022-10-23T06:58:57;15.90;50.60
14604;DHT22;7388;51.078;13.740;2022-10-23T07:01:23;16.10;50.30
14604;DHT22;7388;51.078;13.740;2022-10-23T07:03:48;16.30;50.10
14604;DHT22;7388;51.078;13.740;2022-10-23T07:06:14;16.50;50.60
14604;DHT22;7388;51.078;13.740;2022-10-23T07:08:40;16.80;49.80
14604;DHT22;7388;51.078;13.740;2022-10-23T07:11:07;17.10;49.60
14604;DHT22;7388;51.078;13.740;2022-10-23T07:13:34;17.50;49.60
14604;DHT22;7388;51.078;13.740;2022-10-23T07:16:17;17.80;49.00
14604;DHT22;7388;51.078;13.740;2022-10-23T07:18:43;18.20;48.70
14604;DHT22;7388;51.078;13.740;2022-10-23T07:21:09;18.60;48.20
14604;DHT22;7388;51.078;13.740;2022-10-23T07:23:35;19.00;47.60
14604;DHT22;7388;51.078;13.740;2022-10-23T07:26:10;19.30;46.70
14604;DHT22;7388;51.078;13.740;2022-10-23T07:28:36;19.60;46.40
14604;DHT22;7388;51.078;13.740;2022-10-23T07:31:02;19.90;45.70
14604;DHT22;7388;51.078;13.740;2022-10-23T07:33:28;20.10;45.10
14604;DHT22;7388;51.078;13.740;2022-10-23T07:35:54;20.30;44.90
14604;DHT22;7388;51.078;13.740;2022-10-23T07:38:19;20.50;44.60
14604;DHT22;7388;51.078;13.740;2022-10-23T07:40:45;20.70;44.00
14604;DHT22;7388;51.078;13.740;2022-10-23T07:43:11;20.80;43.50
14604;DHT22;7388;51.078;13.740;2022-10-23T07:45:37;20.90;44.00
14604;DHT22;7388;51.078;13.740;2022-10-23T07:48:02;20.90;43.70
14604;DHT22;7388;51.078;13.740;2022-10-23T07:50:28;20.90;43.00
14604;DHT22;7388;51.078;13.740;2022-10-23T07:52:54;20.80;43.40
14604;DHT22;7388;51.078;13.740;2022-10-23T07:55:21;20.90;43.30
14604;DHT22;7388;51.078;13.740;2022-10-23T07:57:47;20.80;43.00
14604;DHT22;7388;51.078;13.740;2022-10-23T08:00:13;20.60;43.90
14604;DHT22;7388;51.078;13.740;2022-10-23T08:02:39;20.50;43.90
14604;DHT22;7388;51.078;13.740;2022-10-23T08:05:05;20.40;44.10
14604;DHT22;7388;51.078;13.740;2022-10-23T08:07:31;20.40;44.80
14604;DHT22;7388;51.078;13.740;2022-10-23T08:09:56;20.60;44.60
14604;DHT22;7388;51.078;13.740;2022-10-23T08:12:22;20.80;44.90
14604;DHT22;7388;51.078;13.740;2022-10-23T08:14:48;20.90;44.20
14604;DHT22;7388;51.078;13.740;2022-10-23T08:17:14;21.10;43.80
14604;DHT22;7388;51.078;13.740;2022-10-23T08:19:39;21.30;42.80
14604;DHT22;7388;51.078;13.740;2022-10-23T08:22:11;21.30;43.20
14604;DHT22;7388;51.078;13.740;2022-10-23T08:24:36;21.40;43.60
14604;DHT22;7388;51.078;13.740;2022-10-23T08:27:02;21.40;43.30
14604;DHT22;7388;51.078;13.740;2022-10-23T08:29:28;21.40;41.90
14604;DHT22;7388;51.078;13.740;2022-10-23T08:31:54;21.20;42.80
14604;DHT22;7388;51.078;13.740;2022-10-23T08:34:22;21.00;43.10
14604;DHT22;7388;51.078;13.740;2022-10-23T08:36:48;21.00;43.30
14604;DHT22;7388;51.078;13.740;2022-10-23T08:39:15;21.00;43.40
14604;DHT22;7388;51.078;13.740;2022-10-23T08:41:42;21.10;43.30
14604;DHT22;7388;51.078;13.740;2022-10-23T08:44:31;21.30;43.60
14604;DHT22;7388;51.078;13.740;2022-10-23T08:47:02;21.50;42.90
14604;DHT22;7388;51.078;13.740;2022-10-23T08:49:39;21.60;43.10
14604;DHT22;7388;51.078;13.740;2022-10-23T08:52:36;22.00;42.80
14604;DHT22;7388;51.078;13.740;2022-10-23T08:55:25;22.30;42.10
14604;DHT22;7388;51.078;13.740;2022-10-23T08:58:14;22.30;41.00
14604;DHT22;7388;51.078;13.740;2022-10-23T09:00:42;22.30;41.90
14604;DHT22;7388;51.078;13.740;2022-10-23T09:03:09;22.20;41.50
14604;DHT22;7388;51.078;13.740;2022-10-23T09:06:03;22.10;41.70
14604;DHT22;7388;51.078;13.740;2022-10-23T09:08:45;22.00;41.50
14604;DHT22;7388;51.078;13.740;2022-10-23T09:19:18;21.40;43.30
14604;DHT22;7388;51.078;13.740;2022-10-23T09:21:46;21.50;44.20
14604;DHT22;7388;51.078;13.740;2022-10-23T09:24:15;21.60;43.80
14604;DHT22;7388;51.078;13.740;2022-10-23T09:26:49;21.80;44.30
14604;DHT22;7388;51.078;13.740;2022-10-23T09:29:20;21.90;43.80
14604;DHT22;7388;51.078;13.740;2022-10-23T09:31:51;22.00;43.50
14604;DHT22;7388;51.078;13.740;2022-10-23T09:34:23;22.00;43.00
14604;DHT22;7388;51.078;13.740;2022-10-23T09:36:51;21.90;43.50
14604;DHT22;7388;51.078;13.740;2022-10-23T09:39:24;21.90;43.40
14604;DHT22;7388;51.078;13.740;2022-10-23T09:41:50;21.80;43.70
14604;DHT22;7388;51.078;13.740;2022-10-23T09:44:34;21.80;43.90
14604;DHT22;7388;51.078;13.740;2022-10-23T09:47:09;21.80;43.50
14604;DHT22;7388;51.078;13.740;2022-10-23T09:49:39;21.80;44.10
14604;DHT22;7388;51.078;13.740;2022-10-23T09:54:43;21.70;43.90
14604;DHT22;7388;51.078;13.740;2022-10-23T09:57:34;21.70;44.30
14604;DHT22;7388;51.078;13.740;2022-10-23T10:00:22;21.90;44.80
14604;DHT22;7388;51.078;13.740;2022-10-23T10:02:55;22.10;43.80
14604;DHT22;7388;51.078;13.740;2022-10-23T10:05:24;22.20;44.00
14604;DHT22;7388;51.078;13.740;2022-10-23T10:08:14;22.40;43.60
14604;DHT22;7388;51.078;13.740;2022-10-23T10:11:04;22.50;43.20
14604;DHT22;7388;51.078;13.740;2022-10-23T10:16:29;22.70;41.80
14604;DHT22;7388;51.078;13.740;2022-10-23T10:22:15;22.70;41.30
14604;DHT22;7388;51.078;13.740;2022-10-23T10:25:08;22.60;42.00
14604;DHT22;7388;51.078;13.740;2022-10-23T10:27:55;22.60;42.10
14604;DHT22;7388;51.078;13.740;2022-10-23T10:33:46;22.50;42.80
14604;DHT22;7388;51.078;13.740;2022-10-23T10:38:59;22.70;42.90
14604;DHT22;7388;51.078;13.740;2022-10-23T10:47:37;22.60;40.50
14604;DHT22;7388;51.078;13.740;2022-10-23T10:50:25;22.60;41.70
14604;DHT22;7388;51.078;13.740;2022-10-23T10:53:07;22.70;41.70
14604;DHT22;7388;51.078;13.740;2022-10-23T10:55:41;22.70;41.90
14604;DHT22;7388;51.078;13.740;2022-10-23T10:58:14;22.70;41.30
14604;DHT22;7388;51.078;13.740;2022-10-23T11:00:43;22.70;40.20
14604;DHT22;7388;51.078;13.740;2022-10-23T11:05:49;22.70;40.80
14604;DHT22;7388;51.078;13.740;2022-10-23T11:08:22;22.80;40.40
14604;DHT22;7388;51.078;13.740;2022-10-23T11:10:59;22.80;41.30
14604;DHT22;7388;51.078;13.740;2022-10-23T11:13:32;23.00;41.10
14604;DHT22;7388;51.078;13.740;2022-10-23T11:16:18;23.10;40.10
14604;DHT22;7388;51.078;13.740;2022-10-23T11:18:52;23.20;39.40
14604;DHT22;7388;51.078;13.740;2022-10-23T11:22:26;23.10;39.80
14604;DHT22;7388;51.078;13.740;2022-10-23T11:30:11;23.10;40.30
14604;DHT22;7388;51.078;13.740;2022-10-23T11:33:21;23.00;40.00
14604;DHT22;7388;51.078;13.740;2022-10-23T11:38:31;22.90;39.70
14604;DHT22;7388;51.078;13.740;2022-10-23T11:41:24;22.80;40.00
14604;DHT22;7388;51.078;13.740;2022-10-23T11:43:58;22.70;40.10
14604;DHT22;7388;51.078;13.740;2022-10-23T11:46:35;22.60;40.20
14604;DHT22;7388;51.078;13.740;2022-10-23T11:49:02;22.60;40.00
14604;DHT22;7388;51.078;13.740;2022-10-23T11:51:33;22.70;40.20
14604;DHT22;7388;51.078;13.740;2022-10-23T11:59:35;22.70;40.30
14604;DHT22;7388;51.078;13.740;2022-10-23T12:02:30;22.70;40.10
14604;DHT22;7388;51.078;13.740;2022-10-23T12:05:02;22.70;40.70
14604;DHT22;7388;51.078;13.740;2022-10-23T12:07:32;22.70;40.60
14604;DHT22;7388;51.078;13.740;2022-10-23T12:10:05;22.70;40.20
14604;DHT22;7388;51.078;13.740;2022-10-23T12:12:34;22.60;39.60
14604;DHT22;7388;51.078;13.740;2022-10-23T12:17:40;22.30;40.30
14604;DHT22;7388;51.078;13.740;2022-10-23T12:31:04;21.90;41.90
14604;DHT22;7388;51.078;13.740;2022-10-23T12:36:45;21.80;42.00
14604;DHT22;7388;51.078;13.740;2022-10-23T12:39:32;21.80;42.20
14604;DHT22;7388;51.078;13.740;2022-10-23T12:42:02;21.80;41.80
14604;DHT22;7388;51.078;13.740;2022-10-23T12:44:29;21.80;41.90
14604;DHT22;7388;51.078;13.740;2022-10-23T12:47:04;21.80;41.70
14604;DHT22;7388;51.078;13.740;2022-10-23T12:49:31;21.90;42.00
14604;DHT22;7388;51.078;13.740;2022-10-23T12:52:17;22.10;41.80
14604;DHT22;7388;51.078;13.740;2022-10-23T12:54:43;22.20;41.20
14604;DHT22;7388;51.078;13.740;2022-10-23T12:59:43;22.30;41.60
14604;DHT22;7388;51.078;13.740;2022-10-23T13:02:24;22.30;40.80
14604;DHT22;7388;51.078;13.740;2022-10-23T13:04:52;22.20;40.70
14604;DHT22;7388;51.078;13.740;2022-10-23T13:07:21;22.10;41.00
14604;DHT22;7388;51.078;13.740;2022-10-23T13:09:47;22.00;40.90
14604;DHT22;7388;51.078;13.740;2022-10-23T13:12:28;22.00;41.30
14604;DHT22;7388;51.078;13.740;2022-10-23T13:17:38;22.10;41.70
14604;DHT22;7388;51.078;13.740;2022-10-23T13:20:35;22.20;41.80
14604;DHT22;7388;51.078;13.740;2022-10-23T13:25:37;22.30;40.90
14604;DHT22;7388;51.078;13.740;2022-10-23T13:31:45;22.40;41.30
14604;DHT22;7388;51.078;13.740;2022-10-23T13:33:48;22.40;41.40
14604;DHT22;7388;51.078;13.740;2022-10-23T13:39:12;22.40;40.60
14604;DHT22;7388;51.078;13.740;2022-10-23T13:41:45;22.40;40.30
14604;DHT22;7388;51.078;13.740;2022-10-23T13:44:17;22.50;40.10
14604;DHT22;7388;51.078;13.740;2022-10-23T13:46:43;22.60;40.00
14604;DHT22;7388;51.078;13.740;2022-10-23T13:49:09;22.50;39.80
14604;DHT22;7388;51.078;13.740;2022-10-23T13:51:52;22.40;40.20
14604;DHT22;7388;51.078;13.740;2022-10-23T13:54:21;22.40;40.40
14604;DHT22;7388;51.078;13.740;2022-10-23T13:56:47;22.30;40.40
14604;DHT22;7388;51.078;13.740;2022-10-23T13:59:13;22.30;40.40
14604;DHT22;7388;51.078;13.740;2022-10-23T14:01:39;22.20;40.60
14604;DHT22;7388;51.078;13.740;2022-10-23T14:04:06;22.20;40.20
14604;DHT22;7388;51.078;13.740;2022-10-23T14:06:33;22.10;40.20
14604;DHT22;7388;51.078;13.740;2022-10-23T14:08:59;22.00;40.60
14604;DHT22;7388;51.078;13.740;2022-10-23T14:11:25;21.90;40.80
14604;DHT22;7388;51.078;13.740;2022-10-23T14:13:51;21.80;41.70
14604;DHT22;7388;51.078;13.740;2022-10-23T14:16:18;21.80;41.20
14604;DHT22;7388;51.078;13.740;2022-10-23T14:18:45;21.60;41.10
14604;DHT22;7388;51.078;13.740;2022-10-23T14:21:14;21.60;41.20
14604;DHT22;7388;51.078;13.740;2022-10-23T14:23:39;21.50;41.60
14604;DHT22;7388;51.078;13.740;2022-10-23T14:26:08;21.40;41.70
14604;DHT22;7388;51.078;13.740;2022-10-23T14:28:34;21.30;41.80
14604;DHT22;7388;51.078;13.740;2022-10-23T14:31:08;21.20;41.90
14604;DHT22;7388;51.078;13.740;2022-10-23T14:33:34;21.20;41.80
14604;DHT22;7388;51.078;13.740;2022-10-23T14:36:00;21.10;42.30
14604;DHT22;7388;51.078;13.740;2022-10-23T14:38:26;21.00;42.30
14604;DHT22;7388;51.078;13.740;2022-10-23T14:40:52;20.90;42.40
14604;DHT22;7388;51.078;13.740;2022-10-23T14:43:18;20.80;42.50
14604;DHT22;7388;51.078;13.740;2022-10-23T14:45:44;20.80;42.80
14604;DHT22;7388;51.078;13.740;2022-10-23T14:48:09;20.70;42.90
14604;DHT22;7388;51.078;13.740;2022-10-23T14:50:40;20.70;42.80
14604;DHT22;7388;51.078;13.740;2022-10-23T14:53:06;20.60;42.80
14604;DHT22;7388;51.078;13.740;2022-10-23T14:55:32;20.50;42.90
14604;DHT22;7388;51.078;13.740;2022-10-23T14:57:58;20.50;43.10
14604;DHT22;7388;51.078;13.740;2022-10-23T15:00:23;20.50;43.20
14604;DHT22;7388;51.078;13.740;2022-10-23T15:02:49;20.40;43.10
14604;DHT22;7388;51.078;13.740;2022-10-23T15:05:15;20.30;43.20
14604;DHT22;7388;51.078;13.740;2022-10-23T15:07:41;20.30;43.50
14604;DHT22;7388;51.078;13.740;2022-10-23T15:10:07;20.20;43.40
14604;DHT22;7388;51.078;13.740;2022-10-23T15:12:34;20.20;43.40
14604;DHT22;7388;51.078;13.740;2022-10-23T15:15:00;20.10;43.60
14604;DHT22;7388;51.078;13.740;2022-10-23T15:17:26;20.00;43.80
14604;DHT22;7388;51.078;13.740;2022-10-23T15:19:52;20.00;43.80
14604;DHT22;7388;51.078;13.740;2022-10-23T15:22:18;19.90;43.90
14604;DHT22;7388;51.078;13.740;2022-10-23T15:24:44;19.90;44.10
14604;DHT22;7388;51.078;13.740;2022-10-23T15:27:10;19.80;44.10
14604;DHT22;7388;51.078;13.740;2022-10-23T15:29:36;19.80;44.20
14604;DHT22;7388;51.078;13.740;2022-10-23T15:32:02;19.80;44.20
14604;DHT22;7388;51.078;13.740;2022-10-23T15:34:29;19.80;44.20
14604;DHT22;7388;51.078;13.740;2022-10-23T15:36:58;19.80;44.10
14604;DHT22;7388;51.078;13.740;2022-10-23T15:39:26;19.80;44.30
14604;DHT22;7388;51.078;13.740;2022-10-23T15:41:54;19.80;44.40
14604;DHT22;7388;51.078;13.740;2022-10-23T15:44:22;19.70;44.60
14604;DHT22;7388;51.078;13.740;2022-10-23T15:46:49;19.70;44.70
14604;DHT22;7388;51.078;13.740;2022-10-23T15:49:15;19.60;44.80
14604;DHT22;7388;51.078;13.740;2022-10-23T15:51:41;19.60;44.90
14604;DHT22;7388;51.078;13.740;2022-10-23T15:54:10;19.60;44.90
14604;DHT22;7388;51.078;13.740;2022-10-23T15:56:41;19.50;45.00
14604;DHT22;7388;51.078;13.740;2022-10-23T15:59:07;19.50;44.90
14604;DHT22;7388;51.078;13.740;2022-10-23T16:01:32;19.50;45.10
14604;DHT22;7388;51.078;13.740;2022-10-23T16:03:58;18.90;44.80
14604;DHT22;7388;51.078;13.740;2022-10-23T16:06:24;19.50;45.20
14604;DHT22;7388;51.078;13.740;2022-10-23T16:08:49;19.40;45.20
14604;DHT22;7388;51.078;13.740;2022-10-23T16:11:24;19.40;45.30
14604;DHT22;7388;51.078;13.740;2022-10-23T16:13:52;19.40;45.30
14604;DHT22;7388;51.078;13.740;2022-10-23T16:16:18;19.40;45.40
14604;DHT22;7388;51.078;13.740;2022-10-23T16:18:44;19.40;45.40
14604;DHT22;7388;51.078;13.740;2022-10-23T16:21:19;19.40;45.40
14604;DHT22;7388;51.078;13.740;2022-10-23T16:23:46;19.40;45.40
14604;DHT22;7388;51.078;13.740;2022-10-23T16:26:13;19.40;45.50
14604;DHT22;7388;51.078;13.740;2022-10-23T16:28:39;19.40;45.40
14604;DHT22;7388;51.078;13.740;2022-10-23T16:31:09;19.40;45.40
14604;DHT22;7388;51.078;13.740;2022-10-23T16:33:35;19.40;45.40
14604;DHT22;7388;51.078;13.740;2022-10-23T16:36:04;19.30;45.40
14604;DHT22;7388;51.078;13.740;2022-10-23T16:38:31;19.40;45.30
14604;DHT22;7388;51.078;13.740;2022-10-23T16:40:57;19.40;45.20
14604;DHT22;7388;51.078;13.740;2022-10-23T16:43:23;19.40;45.30
14604;DHT22;7388;51.078;13.740;2022-10-23T16:46:00;19.30;45.30
14604;DHT22;7388;51.078;13.740;2022-10-23T16:48:27;19.40;45.40
14604;DHT22;7388;51.078;13.740;2022-10-23T16:50:53;19.30;45.60
14604;DHT22;7388;51.078;13.740;2022-10-23T16:53:18;19.30;45.50
14604;DHT22;7388;51.078;13.740;2022-10-23T16:55:44;19.30;45.60
14604;DHT22;7388;51.078;13.740;2022-10-23T16:58:10;19.30;45.60
14604;DHT22;7388;51.078;13.740;2022-10-23T17:00:36;19.40;45.60
14604;DHT22;7388;51.078;13.740;2022-10-23T17:03:03;19.30;45.60
14604;DHT22;7388;51.078;13.740;2022-10-23T17:05:33;19.40;45.60
14604;DHT22;7388;51.078;13.740;2022-10-23T17:08:00;19.40;45.60
14604;DHT22;7388;51.078;13.740;2022-10-23T17:10:25;19.40;45.60
14604;DHT22;7388;51.078;13.740;2022-10-23T17:12:51;19.40;45.60
14604;DHT22;7388;51.078;13.740;2022-10-23T17:15:17;19.30;45.60
14604;DHT22;7388;51.078;13.740;2022-10-23T17:17:45;19.30;46.40
14604;DHT22;7388;51.078;13.740;2022-10-23T17:20:11;19.30;45.80